メインページ
METAR-TAF:

METAR-TAF

空港 :

キングストン・ノーマン・ロジャース空港

キングストン, オンタリオ州, カナダ

緯度: 44-13N, 経度: 076-36W, 海抜: 93m

現時点の気象観測

当レポートは35分前の00:00(UTC)に作成
北/北東の風 5kt
気温 17°C
湿度 59%
気圧 1020 hPa
視程: 24.1km
高度6000ftの雲はほとんどない
高度8000ftの千切れ雲あり

METAR: CYGK 240000Z 02005KT 15SM FEW060 BKN080 17/09 A3011 RMK SC1AC4 SLP199 DENSITY ALT 500FT

時間: 20:35 (00:35 UTC)

予報

当レポートは4時間57分前の19:38(UTC)に作成
予報は23日の 20時(UTC)から 24日の 03時(UTC)まで有効
南/南西の風 6kt
視程: 10km
高度6000ftの千切れ雲あり
23日の 20時(UTC)から 24日の 03時(UTC)まで一時的に
高度6000ftの雲は散在している
23日の 22時(UTC)から 23日の 24時(UTC)まで徐々に
の風 8kt

TAF: CYGK 231938Z 2320/2403 20006KT P6SM BKN060 TEMPO 2320/2403 SCT060 BECMG 2322/2324 01008KT RMK NXT FCST WILL BE ISSUED AT 241145Z

4,000以上の空港の気象観測と天気予報(METAR報とTAF報)

利用可能な観測所は地図上に黄色い丸と赤い丸で示す。

丸の上にカーソルを重ねると観測所名を参照できる。

次にクリックすると気象観測と天気予報を参照できる。

マップの切り替え:黒色「×」印の緑ボタンをクリックして拡大、「-」印の緑ボタンをクリックして縮小、緑色の三角印をクリックして隣りの地図に切り替え


METAR-TAF: